Time;durP1;ratioP1;P1;durP2;ratioP2;P2;SDS_P1;SDS_P2;PMS_P1;PMS_P2;Temp;Humidity;BMP_temperature;BMP_pressure;BME280_temperature;BME280_humidity;BME280_pressure;Samples;Min_cycle;Max_cycle;Signal;HPM_P1;HPM_P2
2022/04/15 00:01:40;;;;;;;13.10;8.00;;;6.80;99.90;;;;;;5165906;27;20047;-68
2022/04/15 00:04:06;;;;;;;10.98;8.07;;;6.80;99.90;;;;;;5147046;27;20046;-68
2022/04/15 00:06:35;;;;;;;14.32;7.90;;;6.80;99.90;;;;;;5146872;27;20051;-68
2022/04/15 00:09:00;;;;;;;11.43;8.20;;;6.70;99.90;;;;;;5165320;27;20030;-67
2022/04/15 00:11:28;;;;;;;16.85;7.70;;;6.70;99.90;;;;;;5146704;27;20059;-67
2022/04/15 00:13:55;;;;;;;12.65;7.63;;;6.70;99.90;;;;;;5139596;27;20471;-66
2022/04/15 00:16:21;;;;;;;16.88;8.50;;;6.70;99.90;;;;;;5146319;27;20068;-67
2022/04/15 00:18:47;;;;;;;15.93;8.23;;;6.50;99.90;;;;;;5165536;27;20054;-67
2022/04/15 00:21:13;;;;;;;13.68;8.02;;;6.50;99.90;;;;;;5146487;27;20046;-68
2022/04/15 00:23:39;;;;;;;16.77;8.60;;;6.50;99.90;;;;;;5146805;27;20043;-67
2022/04/15 00:26:05;;;;;;;12.30;8.60;;;6.60;99.90;;;;;;5150058;27;20091;-67
2022/04/15 00:28:31;;;;;;;14.65;8.30;;;6.60;99.90;;;;;;5150902;27;20046;-66
2022/04/15 00:30:57;;;;;;;18.92;8.88;;;6.70;99.90;;;;;;5133136;27;20132;-66
2022/04/15 00:33:23;;;;;;;16.33;9.18;;;6.80;99.90;;;;;;5150777;27;20054;-66
2022/04/15 00:35:49;;;;;;;14.00;8.68;;;6.90;99.90;;;;;;5149985;27;20038;-66
2022/04/15 00:38:16;;;;;;;12.68;8.73;;;7.00;99.90;;;;;;5151043;27;20043;-66
2022/04/15 00:40:42;;;;;;;13.80;8.60;;;7.00;99.90;;;;;;5169634;27;20098;-67
2022/04/15 00:43:07;;;;;;;14.73;8.82;;;7.00;99.90;;;;;;5133110;27;20466;-66
2022/04/15 00:45:33;;;;;;;18.40;9.00;;;7.20;99.90;;;;;;5168982;27;20042;-66
2022/04/15 00:48:00;;;;;;;14.20;8.50;;;7.10;99.90;;;;;;5164165;27;20119;-66
2022/04/15 00:50:31;;;;;;;14.07;8.95;;;7.20;99.90;;;;;;5151147;27;20038;-67
2022/04/15 00:53:00;;;;;;;16.75;8.65;;;7.30;99.90;;;;;;5151053;27;20050;-66
2022/04/15 00:55:27;;;;;;;12.02;8.23;;;7.30;99.90;;;;;;5151449;27;20062;-66
2022/04/15 00:57:58;;;;;;;18.77;9.20;;;7.40;99.90;;;;;;5150461;27;20051;-67
2022/04/15 01:00:27;;;;;;;12.20;9.02;;;7.50;99.90;;;;;;5150356;27;20077;-66
2022/04/15 01:02:56;;;;;;;12.15;8.35;;;7.60;99.90;;;;;;5133030;27;20117;-66
2022/04/15 01:05:22;;;;;;;14.93;8.10;;;7.80;99.90;;;;;;5155962;27;20689;-66
2022/04/15 01:07:55;;;;;;;16.15;8.35;;;7.70;99.90;;;;;;5140567;27;20084;-67
2022/04/15 01:10:22;;;;;;;15.27;8.85;;;7.90;99.90;;;;;;5143833;27;20578;-67
2022/04/15 01:12:54;;;;;;;16.02;8.77;;;8.10;99.90;;;;;;5132057;27;20051;-67
2022/04/15 01:15:22;;;;;;;12.35;7.93;;;8.10;99.90;;;;;;5149669;27;20271;-67
2022/04/15 01:17:48;;;;;;;10.32;8.43;;;8.10;99.90;;;;;;5151529;27;20050;-66
2022/04/15 01:20:14;;;;;;;14.07;8.65;;;8.00;99.90;;;;;;5168886;27;20494;-66
2022/04/15 01:22:42;;;;;;;13.68;8.30;;;8.20;99.90;;;;;;5146619;27;20058;-67
2022/04/15 01:25:10;;;;;;;16.75;9.25;;;8.20;99.90;;;;;;5158522;27;20463;-66
2022/04/15 01:27:38;;;;;;;15.70;8.05;;;8.10;99.90;;;;;;5144413;27;20047;-67
2022/04/15 01:30:07;;;;;;;13.93;8.30;;;8.00;99.90;;;;;;5150613;27;20042;-66
2022/04/15 01:32:32;;;;;;;17.67;8.70;;;7.90;99.90;;;;;;5153106;27;20163;-66
2022/04/15 01:34:58;;;;;;;15.30;8.63;;;8.00;99.90;;;;;;5150320;27;20500;-66
2022/04/15 01:37:24;;;;;;;18.98;8.75;;;7.90;99.90;;;;;;5150641;27;20088;-66
2022/04/15 01:39:51;;;;;;;16.55;8.40;;;7.90;99.90;;;;;;5147699;27;20047;-67
2022/04/15 01:42:17;;;;;;;17.95;9.13;;;8.00;99.90;;;;;;5149357;27;20046;-66
2022/04/15 01:44:44;;;;;;;14.10;8.63;;;8.00;99.90;;;;;;5145728;27;20102;-66
2022/04/15 01:47:10;;;;;;;15.02;9.32;;;8.00;99.90;;;;;;5144953;27;20043;-66
2022/04/15 01:49:37;;;;;;;16.52;9.25;;;8.00;99.90;;;;;;5142086;27;20281;-66
2022/04/15 01:52:03;;;;;;;10.48;8.90;;;8.00;99.90;;;;;;5134884;27;20051;-66
2022/04/15 01:54:29;;;;;;;14.40;8.30;;;8.00;99.90;;;;;;5146444;27;20084;-66
2022/04/15 01:56:56;;;;;;;14.43;8.55;;;7.90;99.90;;;;;;5148357;27;20046;-66
2022/04/15 01:59:22;;;;;;;16.65;9.15;;;7.90;99.90;;;;;;5132799;27;20043;-66
2022/04/15 02:01:48;;;;;;;21.13;8.88;;;7.90;99.90;;;;;;5147336;27;20103;-66
2022/04/15 02:04:13;;;;;;;16.55;9.25;;;7.80;99.90;;;;;;5145159;27;20042;-66
2022/04/15 02:06:39;;;;;;;14.38;9.48;;;7.80;99.90;;;;;;5135674;27;20105;-66
2022/04/15 02:09:05;;;;;;;15.32;9.18;;;7.80;99.90;;;;;;5146369;27;20047;-66
2022/04/15 02:11:30;;;;;;;14.48;8.90;;;7.80;99.90;;;;;;5145337;27;20041;-67
2022/04/15 02:13:56;;;;;;;13.07;9.07;;;7.90;99.90;;;;;;5145078;27;20116;-67
2022/04/15 02:16:22;;;;;;;15.20;9.50;;;7.90;99.90;;;;;;5145598;27;20078;-66
2022/04/15 02:18:48;;;;;;;19.40;10.23;;;7.80;99.90;;;;;;5146717;27;20050;-66
2022/04/15 02:21:13;;;;;;;11.80;8.73;;;7.80;99.90;;;;;;5126052;27;20040;-66
2022/04/15 02:23:39;;;;;;;17.38;9.88;;;7.80;99.90;;;;;;5146495;27;20047;-66
2022/04/15 02:26:05;;;;;;;14.77;9.75;;;7.80;99.90;;;;;;5139478;27;20038;-66
2022/04/15 02:28:30;;;;;;;16.48;9.35;;;7.80;99.90;;;;;;5131005;27;20074;-66
2022/04/15 02:30:56;;;;;;;12.65;8.68;;;8.00;99.90;;;;;;5144873;27;20077;-66
2022/04/15 02:33:22;;;;;;;17.52;9.38;;;7.80;99.90;;;;;;5145002;27;20060;-66
2022/04/15 02:35:48;;;;;;;14.32;8.98;;;7.70;99.90;;;;;;5146634;27;20099;-66
2022/04/15 02:38:13;;;;;;;12.50;9.18;;;7.80;99.90;;;;;;5174508;27;20043;-66
2022/04/15 02:40:39;;;;;;;15.07;8.63;;;7.80;99.90;;;;;;5145187;27;20435;-66
2022/04/15 02:43:06;;;;;;;14.02;8.90;;;7.90;99.90;;;;;;5124251;27;20073;-66
2022/04/15 02:45:32;;;;;;;10.50;7.35;;;8.00;99.90;;;;;;5144090;27;20048;-66
2022/04/15 02:47:58;;;;;;;12.63;8.25;;;8.10;99.90;;;;;;5164823;27;20051;-66
2022/04/15 02:50:24;;;;;;;16.30;9.02;;;8.10;99.90;;;;;;5145244;27;20057;-66
2022/04/15 02:52:50;;;;;;;10.70;8.25;;;8.10;99.90;;;;;;5145207;27;20051;-66
2022/04/15 02:55:16;;;;;;;17.10;9.55;;;8.10;99.90;;;;;;5124075;27;20050;-66
2022/04/15 02:57:42;;;;;;;15.88;8.30;;;8.00;99.90;;;;;;5146150;27;20047;-66
2022/04/15 03:00:08;;;;;;;18.15;9.15;;;7.90;99.90;;;;;;5145716;27;20294;-66
2022/04/15 03:02:34;;;;;;;16.42;8.00;;;7.90;99.90;;;;;;5142478;27;20044;-66
2022/04/15 03:05:01;;;;;;;12.35;7.30;;;8.10;99.90;;;;;;5142719;27;20526;-66
2022/04/15 03:07:27;;;;;;;15.98;8.52;;;8.10;99.90;;;;;;5120388;27;20054;-66
2022/04/15 03:09:53;;;;;;;12.48;8.80;;;8.10;99.90;;;;;;5138994;27;20043;-66
2022/04/15 03:12:18;;;;;;;12.50;8.35;;;8.00;99.90;;;;;;5169974;27;20047;-66
2022/04/15 03:14:44;;;;;;;14.23;8.40;;;8.00;99.90;;;;;;5145275;27;20047;-66
2022/04/15 03:17:11;;;;;;;14.52;8.77;;;8.00;99.90;;;;;;5144907;27;20074;-66
2022/04/15 03:19:37;;;;;;;13.57;9.35;;;8.00;99.90;;;;;;5146324;27;20047;-66
2022/04/15 03:22:05;;;;;;;13.32;8.98;;;8.00;99.90;;;;;;5145002;27;20082;-66
2022/04/15 03:24:31;;;;;;;10.93;8.45;;;8.00;99.90;;;;;;5144326;27;20043;-66
2022/04/15 03:26:56;;;;;;;15.13;9.32;;;8.00;99.90;;;;;;5145175;27;20336;-66
2022/04/15 03:29:22;;;;;;;11.65;8.45;;;8.00;99.90;;;;;;5145216;27;20039;-66
2022/04/15 03:31:48;;;;;;;14.30;8.60;;;7.90;99.90;;;;;;5143792;27;20039;-66
2022/04/15 03:34:14;;;;;;;15.30;9.70;;;8.10;99.90;;;;;;5143796;27;20475;-66
2022/04/15 03:36:40;;;;;;;16.55;8.45;;;8.00;99.90;;;;;;5145329;27;20034;-66
2022/04/15 03:39:06;;;;;;;9.98;7.13;;;8.10;99.90;;;;;;5168032;27;20107;-66
2022/04/15 03:41:32;;;;;;;13.40;8.15;;;8.40;99.90;;;;;;5143735;27;20061;-66
2022/04/15 03:43:57;;;;;;;11.48;7.28;;;8.20;99.90;;;;;;5123708;27;20115;-66
2022/04/15 03:46:23;;;;;;;11.60;6.80;;;8.20;99.90;;;;;;5124256;27;20051;-66
2022/04/15 03:48:49;;;;;;;13.35;6.93;;;8.40;99.90;;;;;;5122562;28;20054;-66
2022/04/15 03:51:14;;;;;;;11.35;6.65;;;8.40;99.90;;;;;;5142857;27;20047;-66
2022/04/15 03:53:40;;;;;;;9.60;6.30;;;8.60;99.90;;;;;;5126089;27;20058;-66
2022/04/15 03:56:07;;;;;;;8.75;5.88;;;8.40;99.90;;;;;;5127407;28;20039;-66
2022/04/15 03:58:36;;;;;;;10.27;6.75;;;8.70;99.90;;;;;;5125897;28;20062;-66
2022/04/15 04:01:02;;;;;;;11.07;6.95;;;8.70;99.90;;;;;;5125999;28;20035;-66
2022/04/15 04:03:28;;;;;;;15.18;8.00;;;8.80;99.90;;;;;;5127173;28;20058;-66
2022/04/15 04:05:54;;;;;;;19.27;10.50;;;8.90;99.90;;;;;;5143605;27;20059;-66
2022/04/15 04:08:19;;;;;;;15.82;10.07;;;8.90;99.90;;;;;;5126168;28;20516;-66
2022/04/15 04:10:45;;;;;;;14.77;11.05;;;8.90;99.90;;;;;;5131297;28;20031;-67
2022/04/15 04:13:11;;;;;;;17.60;11.25;;;9.00;99.90;;;;;;5115717;28;20068;-66
2022/04/15 04:15:37;;;;;;;14.68;11.30;;;8.90;99.90;;;;;;5128131;28;20039;-66
2022/04/15 04:18:03;;;;;;;15.35;10.88;;;9.10;99.90;;;;;;5128603;28;20079;-66
2022/04/15 04:20:28;;;;;;;16.25;10.20;;;9.00;99.90;;;;;;5145919;27;20054;-66
2022/04/15 04:22:54;;;;;;;20.15;12.60;;;9.00;99.90;;;;;;5145108;28;20038;-65
2022/04/15 04:25:21;;;;;;;16.45;11.55;;;9.00;99.90;;;;;;5146490;27;20119;-66
2022/04/15 04:27:47;;;;;;;15.70;10.98;;;9.10;99.90;;;;;;5110053;28;20107;-66
2022/04/15 04:30:13;;;;;;;15.65;10.10;;;9.00;99.90;;;;;;5127793;28;20046;-66
2022/04/15 04:32:40;;;;;;;14.05;10.27;;;9.20;99.90;;;;;;5146407;27;20058;-66
2022/04/15 04:35:06;;;;;;;16.05;11.05;;;9.40;99.90;;;;;;5126492;27;20043;-66
2022/04/15 04:37:32;;;;;;;12.35;9.40;;;9.30;99.90;;;;;;5110927;28;20043;-66
2022/04/15 04:39:58;;;;;;;12.57;9.05;;;9.20;99.90;;;;;;5127967;28;20071;-66
2022/04/15 04:42:25;;;;;;;10.77;9.02;;;9.30;99.90;;;;;;5111097;27;20051;-66
2022/04/15 04:44:52;;;;;;;10.38;8.85;;;9.30;99.90;;;;;;5134987;27;20078;-66
2022/04/15 04:47:19;;;;;;;11.15;9.05;;;9.20;99.90;;;;;;5146078;27;20057;-66
2022/04/15 04:49:46;;;;;;;12.60;9.10;;;9.20;99.90;;;;;;5146757;27;20057;-66
2022/04/15 04:52:12;;;;;;;13.68;9.95;;;9.20;99.90;;;;;;5146366;27;20035;-66
2022/04/15 04:54:38;;;;;;;11.60;9.63;;;9.10;99.90;;;;;;5129512;27;20128;-66
2022/04/15 04:57:04;;;;;;;10.48;9.40;;;9.00;99.90;;;;;;5130422;27;20114;-66
2022/04/15 04:59:31;;;;;;;10.48;8.43;;;9.10;99.90;;;;;;5164841;27;20050;-66
2022/04/15 05:01:57;;;;;;;11.30;8.30;;;9.10;99.90;;;;;;5146265;27;20373;-66
2022/04/15 05:04:23;;;;;;;8.75;7.85;;;9.00;99.90;;;;;;5146622;27;20047;-65
2022/04/15 05:06:48;;;;;;;10.32;8.63;;;9.00;99.90;;;;;;5126679;27;20081;-65
2022/04/15 05:09:15;;;;;;;10.43;8.63;;;8.90;99.90;;;;;;5146177;27;20046;-65
2022/04/15 05:11:41;;;;;;;9.70;8.23;;;9.20;99.90;;;;;;5143304;27;20081;-65
2022/04/15 05:14:07;;;;;;;9.30;7.82;;;9.10;99.90;;;;;;5151024;27;20047;-65
2022/04/15 05:16:33;;;;;;;9.55;8.40;;;9.10;99.90;;;;;;5149862;27;20047;-65
2022/04/15 05:18:58;;;;;;;9.57;8.55;;;9.10;99.90;;;;;;5132489;27;20085;-64
2022/04/15 05:21:24;;;;;;;9.73;8.27;;;9.00;99.90;;;;;;5149840;27;20034;-65
2022/04/15 05:23:50;;;;;;;10.05;8.93;;;9.10;99.90;;;;;;5148561;27;20076;-64
2022/04/15 05:26:16;;;;;;;9.57;7.88;;;9.10;99.90;;;;;;5149722;27;20046;-64
2022/04/15 05:28:42;;;;;;;9.30;7.85;;;9.10;99.90;;;;;;5150689;27;20035;-64
2022/04/15 05:31:09;;;;;;;8.10;7.10;;;9.10;99.90;;;;;;5149307;27;20549;-65
2022/04/15 05:33:35;;;;;;;9.30;7.47;;;9.30;99.90;;;;;;5149130;27;20047;-67
2022/04/15 05:36:01;;;;;;;8.77;7.82;;;9.20;99.90;;;;;;5148498;27;20039;-67
2022/04/15 05:38:27;;;;;;;9.70;7.32;;;9.20;99.90;;;;;;5166464;27;20088;-66
2022/04/15 05:40:52;;;;;;;9.63;7.22;;;9.20;99.90;;;;;;5148514;27;20039;-66
2022/04/15 05:43:19;;;;;;;12.27;6.95;;;9.20;99.90;;;;;;5167112;27;20078;-66
2022/04/15 05:45:45;;;;;;;8.20;6.80;;;9.10;99.90;;;;;;5148211;27;20102;-66
2022/04/15 05:48:11;;;;;;;8.20;6.20;;;9.30;99.90;;;;;;5148696;27;20058;-66
2022/04/15 05:50:36;;;;;;;6.43;5.40;;;9.20;99.90;;;;;;5149282;27;20042;-67
2022/04/15 05:53:02;;;;;;;7.85;5.57;;;9.40;99.90;;;;;;5148365;27;20046;-66
2022/04/15 05:55:28;;;;;;;8.73;6.10;;;9.30;99.90;;;;;;5167131;27;20038;-66
2022/04/15 05:57:53;;;;;;;6.82;6.03;;;9.10;99.90;;;;;;5148010;27;20047;-66
2022/04/15 06:00:19;;;;;;;7.47;5.68;;;9.10;99.90;;;;;;5167872;27;20051;-67
2022/04/15 06:02:45;;;;;;;6.35;5.57;;;9.20;99.90;;;;;;5148889;27;20043;-66
2022/04/15 06:05:11;;;;;;;9.05;6.50;;;9.10;99.90;;;;;;5128689;27;20067;-68
2022/04/15 06:07:36;;;;;;;9.00;6.88;;;9.10;99.90;;;;;;5114810;27;20066;-68
2022/04/15 06:10:04;;;;;;;8.98;6.75;;;9.10;99.90;;;;;;5131551;27;20041;-66
2022/04/15 06:15:23;;;;;;;8.90;6.85;;;8.90;99.90;;;;;;5167331;27;20053;-67
2022/04/15 06:17:49;;;;;;;8.02;7.07;;;9.10;99.90;;;;;;5172031;27;20054;-66
2022/04/15 06:20:15;;;;;;;9.38;8.35;;;9.10;99.90;;;;;;5148776;27;20039;-66
2022/04/15 06:22:42;;;;;;;11.32;7.65;;;9.10;99.90;;;;;;5168037;27;20071;-67
2022/04/15 06:25:08;;;;;;;19.17;8.45;;;9.30;99.90;;;;;;5148206;27;20054;-67
2022/04/15 06:27:34;;;;;;;8.65;6.90;;;9.20;99.90;;;;;;5131836;27;20494;-67
2022/04/15 06:30:00;;;;;;;7.70;6.35;;;9.10;99.90;;;;;;5148602;27;20031;-67
2022/04/15 06:32:26;;;;;;;8.98;7.07;;;9.10;99.90;;;;;;5167356;27;20057;-67
2022/04/15 06:34:51;;;;;;;10.02;7.63;;;9.30;99.90;;;;;;5147931;27;20077;-67
2022/04/15 06:37:17;;;;;;;8.55;7.68;;;9.20;99.90;;;;;;5129643;27;20050;-67
2022/04/15 06:39:45;;;;;;;9.65;7.47;;;9.20;99.90;;;;;;5147881;27;20042;-67
2022/04/15 06:42:12;;;;;;;12.25;7.82;;;9.20;99.90;;;;;;5148844;27;20054;-67
2022/04/15 06:44:37;;;;;;;8.93;7.15;;;9.30;99.90;;;;;;5148094;27;20063;-67
2022/04/15 06:47:03;;;;;;;10.80;8.82;;;9.20;99.90;;;;;;5147326;27;20102;-67
2022/04/15 06:49:29;;;;;;;8.93;7.53;;;9.10;99.90;;;;;;5147928;27;20070;-67
2022/04/15 06:51:55;;;;;;;9.95;7.97;;;9.20;99.90;;;;;;5147837;27;20043;-67
2022/04/15 06:54:21;;;;;;;9.77;7.70;;;9.30;99.90;;;;;;5143865;27;20163;-66
2022/04/15 06:56:46;;;;;;;13.25;9.13;;;9.20;99.90;;;;;;5166369;27;20446;-66
2022/04/15 06:59:12;;;;;;;11.70;8.82;;;9.20;99.90;;;;;;5147509;27;20039;-67
2022/04/15 07:01:38;;;;;;;12.00;8.77;;;9.40;99.90;;;;;;5148011;27;20143;-67
2022/04/15 07:04:04;;;;;;;12.45;9.55;;;9.20;99.90;;;;;;5147889;27;20395;-67
2022/04/15 07:06:29;;;;;;;12.25;9.23;;;9.20;99.90;;;;;;5147552;27;20051;-67
2022/04/15 07:08:55;;;;;;;12.60;9.60;;;9.20;99.90;;;;;;5147642;27;20039;-67
2022/04/15 07:11:21;;;;;;;11.68;8.90;;;9.30;99.90;;;;;;5147364;27;20134;-66
2022/04/15 07:13:46;;;;;;;13.90;10.02;;;9.40;99.90;;;;;;5147151;27;20533;-66
2022/04/15 07:16:13;;;;;;;11.95;9.63;;;9.30;99.90;;;;;;5147648;27;20102;-66
2022/04/15 07:18:38;;;;;;;17.17;10.05;;;9.30;99.90;;;;;;5166633;27;20042;-66
2022/04/15 07:21:04;;;;;;;17.08;10.95;;;9.30;99.90;;;;;;5148101;27;20042;-66
2022/04/15 07:23:30;;;;;;;17.05;10.60;;;9.40;99.90;;;;;;5165872;27;20051;-66
2022/04/15 07:25:55;;;;;;;14.88;10.70;;;9.50;99.90;;;;;;5147770;27;20057;-66
2022/04/15 07:28:21;;;;;;;18.00;11.95;;;9.50;99.90;;;;;;5147126;27;20038;-66
2022/04/15 07:30:47;;;;;;;16.70;11.60;;;9.50;99.90;;;;;;5147388;27;20042;-66
2022/04/15 07:33:12;;;;;;;18.42;11.45;;;9.60;99.90;;;;;;5129644;27;20046;-66
2022/04/15 07:35:38;;;;;;;16.27;10.88;;;9.60;99.90;;;;;;5146992;27;20050;-66
2022/04/15 07:38:04;;;;;;;17.25;11.23;;;9.70;99.90;;;;;;5146679;27;20038;-69
2022/04/15 07:40:29;;;;;;;15.80;10.85;;;9.60;99.90;;;;;;5107716;27;20077;-67
2022/04/15 07:42:57;;;;;;;17.13;11.73;;;9.90;99.90;;;;;;5164654;27;20073;-66
2022/04/15 07:45:23;;;;;;;17.48;11.73;;;9.70;99.90;;;;;;5145932;27;20065;-66
2022/04/15 07:47:49;;;;;;;15.48;11.48;;;9.90;99.90;;;;;;5162562;27;20110;-66
2022/04/15 07:50:15;;;;;;;16.80;12.23;;;9.80;99.90;;;;;;5163216;27;20078;-66
2022/04/15 07:52:40;;;;;;;19.05;12.52;;;9.70;99.90;;;;;;5146055;27;20058;-66
2022/04/15 07:55:07;;;;;;;20.83;12.40;;;9.80;99.90;;;;;;5145201;27;20107;-66
2022/04/15 07:57:34;;;;;;;18.52;13.15;;;9.80;99.90;;;;;;5144695;27;20042;-66
2022/04/15 07:59:59;;;;;;;18.20;13.23;;;10.10;99.90;;;;;;5144270;27;20043;-66
2022/04/15 08:02:25;;;;;;;19.42;13.18;;;10.10;99.90;;;;;;5144881;27;20098;-65
2022/04/15 08:04:52;;;;;;;22.75;14.10;;;10.10;99.90;;;;;;5145388;27;20086;-70
2022/04/15 08:07:18;;;;;;;20.45;12.85;;;10.10;99.90;;;;;;5144020;27;20042;-65
2022/04/15 08:09:44;;;;;;;18.58;13.43;;;10.20;99.90;;;;;;5115162;27;20550;-65
2022/04/15 08:12:11;;;;;;;22.70;12.23;;;10.30;99.90;;;;;;5124856;27;20053;-65
2022/04/15 08:14:36;;;;;;;17.85;11.65;;;10.20;99.90;;;;;;5100810;27;20039;-66
2022/04/15 08:17:02;;;;;;;21.25;11.68;;;10.30;99.90;;;;;;5126594;27;20050;-66
2022/04/15 08:19:28;;;;;;;16.27;10.95;;;10.20;99.90;;;;;;5124113;27;20589;-66
2022/04/15 08:21:54;;;;;;;18.48;10.20;;;10.30;99.90;;;;;;5112648;27;20038;-68
2022/04/15 08:24:21;;;;;;;14.10;9.57;;;10.50;99.90;;;;;;5123846;27;20553;-66
2022/04/15 08:26:49;;;;;;;14.65;9.73;;;10.40;99.90;;;;;;5106692;27;20190;-65
2022/04/15 08:29:15;;;;;;;15.93;9.82;;;10.40;99.90;;;;;;5139127;27;20043;-64
2022/04/15 08:31:41;;;;;;;14.77;9.18;;;10.70;99.90;;;;;;5149703;27;20042;-65
2022/04/15 08:34:07;;;;;;;13.10;9.23;;;10.70;99.90;;;;;;5139802;27;20106;-65
2022/04/15 08:36:32;;;;;;;14.82;13.25;;;10.50;99.90;;;;;;5110399;27;20869;-67
2022/04/15 08:38:58;;;;;;;15.73;9.20;;;10.60;99.90;;;;;;5133369;27;20103;-66
2022/04/15 08:41:26;;;;;;;16.83;9.93;;;10.70;99.90;;;;;;5139781;27;20054;-65
2022/04/15 08:43:54;;;;;;;13.93;9.00;;;10.70;99.90;;;;;;5147810;27;20054;-65
2022/04/15 08:46:21;;;;;;;11.63;8.77;;;10.80;99.90;;;;;;5129082;27;20054;-66
2022/04/15 08:48:49;;;;;;;13.32;9.13;;;10.70;99.90;;;;;;5153775;27;20049;-65
2022/04/15 08:51:15;;;;;;;14.32;8.35;;;10.70;99.90;;;;;;5140796;27;20060;-69
2022/04/15 08:53:42;;;;;;;9.00;6.47;;;10.80;99.90;;;;;;5134517;27;20062;-68
2022/04/15 08:56:08;;;;;;;9.02;6.47;;;10.80;99.90;;;;;;5145844;27;20064;-68
2022/04/15 08:58:35;;;;;;;9.85;7.25;;;10.80;99.90;;;;;;5100652;27;20047;-68
2022/04/15 09:01:00;;;;;;;13.00;6.75;;;11.00;99.90;;;;;;5129555;27;20083;-68
2022/04/15 09:03:26;;;;;;;12.73;6.95;;;10.90;99.90;;;;;;5115935;27;20063;-68
2022/04/15 09:05:52;;;;;;;8.68;7.43;;;11.00;99.90;;;;;;5128365;27;20035;-68
2022/04/15 09:08:18;;;;;;;14.55;7.90;;;10.80;99.90;;;;;;5150748;27;20054;-68
2022/04/15 09:10:55;;;;;;;10.93;7.63;;;10.80;99.90;;;;;;5142889;27;20135;-68
2022/04/15 09:13:23;;;;;;;14.25;8.18;;;11.00;99.90;;;;;;5131357;27;20057;-68
2022/04/15 09:15:49;;;;;;;13.65;8.20;;;11.10;99.90;;;;;;5142180;27;20058;-67
2022/04/15 09:18:36;;;;;;;11.80;7.60;;;11.00;99.90;;;;;;5132119;27;20088;-67
2022/04/15 09:21:16;;;;;;;12.32;8.23;;;11.10;99.90;;;;;;5163357;27;20054;-67
2022/04/15 09:23:45;;;;;;;16.73;8.02;;;11.10;99.90;;;;;;5131491;27;20051;-67
2022/04/15 09:26:11;;;;;;;12.35;8.32;;;11.30;99.90;;;;;;5161797;27;20057;-66
2022/04/15 09:28:37;;;;;;;9.52;7.25;;;11.30;99.90;;;;;;5152278;27;20081;-67
2022/04/15 09:31:03;;;;;;;11.55;7.28;;;11.40;99.90;;;;;;5142156;27;20069;-67
2022/04/15 09:33:29;;;;;;;9.35;7.28;;;11.50;99.90;;;;;;5151375;27;20065;-68
2022/04/15 09:35:55;;;;;;;10.98;7.72;;;11.50;99.90;;;;;;5124985;27;20059;-68
2022/04/15 09:38:42;;;;;;;12.30;7.80;;;11.50;99.90;;;;;;5111967;27;20081;-68
2022/04/15 09:41:24;;;;;;;12.48;7.78;;;11.60;99.90;;;;;;5112413;27;20047;-68
2022/04/15 09:43:54;;;;;;;13.75;8.45;;;11.70;99.90;;;;;;5125637;27;20046;-68
2022/04/15 09:46:21;;;;;;;9.57;7.60;;;11.70;99.90;;;;;;5142021;27;20047;-68
2022/04/15 09:49:02;;;;;;;14.07;7.88;;;11.60;99.90;;;;;;5132361;27;20043;-67
2022/04/15 09:51:38;;;;;;;11.40;7.45;;;11.70;99.90;;;;;;5140561;27;20051;-68
2022/04/15 09:54:07;;;;;;;15.70;8.25;;;11.70;99.90;;;;;;5167302;27;20050;-67
2022/04/15 09:56:35;;;;;;;12.15;8.57;;;11.90;99.90;;;;;;5149975;27;20067;-67
2022/04/15 09:59:08;;;;;;;8.93;7.88;;;11.90;99.90;;;;;;5157860;27;20088;-67
2022/04/15 10:01:40;;;;;;;15.00;9.32;;;12.10;99.90;;;;;;5131528;27;20050;-68
2022/04/15 10:04:08;;;;;;;9.75;7.57;;;12.20;99.90;;;;;;5133795;27;20047;-68
2022/04/15 10:06:34;;;;;;;12.27;8.38;;;12.50;99.90;;;;;;5133519;27;20050;-69
2022/04/15 10:09:02;;;;;;;13.00;8.25;;;12.60;99.90;;;;;;5148315;27;20114;-69
2022/04/15 10:11:34;;;;;;;10.95;7.10;;;12.50;99.90;;;;;;5144481;27;20053;-68
2022/04/15 10:14:01;;;;;;;11.52;7.63;;;12.60;99.90;;;;;;5115107;27;20043;-68
2022/04/15 10:16:28;;;;;;;13.70;8.15;;;12.50;99.90;;;;;;5140848;27;20387;-66
2022/04/15 10:18:54;;;;;;;13.85;7.47;;;12.60;99.90;;;;;;5130914;27;20110;-66
2022/04/15 10:21:20;;;;;;;13.55;7.40;;;12.70;99.90;;;;;;5125076;27;20092;-67
2022/04/15 10:23:46;;;;;;;9.75;6.97;;;12.70;99.90;;;;;;5132704;27;20136;-69
2022/04/15 10:26:11;;;;;;;12.23;6.38;;;12.70;99.90;;;;;;5143078;27;20038;-67
2022/04/15 10:28:44;;;;;;;11.65;7.28;;;12.90;99.90;;;;;;5115788;27;20064;-68
2022/04/15 10:31:19;;;;;;;10.63;6.90;;;13.10;99.90;;;;;;5141484;27;20047;-69
2022/04/15 10:33:49;;;;;;;13.52;7.57;;;13.00;99.90;;;;;;5149032;27;20445;-68
2022/04/15 10:36:16;;;;;;;;;;;13.30;99.90;;;;;;5107603;27;20075;-67
2022/04/15 10:39:03;;;;;;;12.52;7.50;;;13.10;99.90;;;;;;5133355;27;19919;-69
2022/04/15 10:41:50;;;;;;;12.77;7.65;;;13.20;99.90;;;;;;5156253;27;20061;-70
2022/04/15 10:44:27;;;;;;;8.07;6.05;;;13.10;99.90;;;;;;5113279;27;20051;-68
2022/04/15 10:46:57;;;;;;;11.27;6.85;;;13.10;99.90;;;;;;5152746;27;20459;-69
2022/04/15 10:49:26;;;;;;;10.70;7.30;;;13.30;99.90;;;;;;5160136;27;20038;-69
2022/04/15 10:52:01;;;;;;;10.52;7.75;;;13.20;99.90;;;;;;5150687;27;20039;-69
2022/04/15 10:54:42;;;;;;;14.82;7.70;;;13.20;99.90;;;;;;5163335;27;20114;-69
2022/04/15 10:57:15;;;;;;;9.45;7.28;;;13.20;99.90;;;;;;5128312;27;20066;-69
2022/04/15 11:02:50;;;;;;;11.50;7.70;;;13.10;99.90;;;;;;5123110;27;20106;-69
2022/04/15 11:05:41;;;;;;;11.73;7.32;;;13.20;99.90;;;;;;5139203;27;20051;-69
2022/04/15 11:08:10;;;;;;;11.82;7.90;;;13.10;99.90;;;;;;5132653;27;20126;-69
2022/04/15 11:10:42;;;;;;;7.68;6.85;;;13.10;99.90;;;;;;5137461;27;20047;-69
2022/04/15 11:13:09;;;;;;;9.95;7.63;;;13.10;99.90;;;;;;5133358;27;20075;-69
2022/04/15 11:15:54;;;;;;;11.65;7.82;;;13.00;99.90;;;;;;5140040;27;20047;-69
2022/04/15 11:18:20;;;;;;;13.23;7.82;;;13.30;99.90;;;;;;5130699;27;20475;-69
2022/04/15 11:20:46;;;;;;;14.95;8.25;;;13.20;99.90;;;;;;5141321;27;20039;-69
2022/04/15 11:23:13;;;;;;;10.32;7.80;;;13.10;99.90;;;;;;5132906;27;20075;-69
2022/04/15 11:25:45;;;;;;;12.75;8.32;;;13.10;99.90;;;;;;5141222;27;20034;-69
2022/04/15 11:28:11;;;;;;;10.02;7.50;;;13.20;99.90;;;;;;5131164;27;20054;-69
2022/04/15 11:30:37;;;;;;;11.52;7.43;;;13.30;99.90;;;;;;5141420;27;20077;-69
2022/04/15 11:33:07;;;;;;;11.15;8.45;;;13.00;99.90;;;;;;5112063;27;20050;-69
2022/04/15 11:35:35;;;;;;;10.90;7.80;;;13.00;99.90;;;;;;5138513;27;20500;-69
2022/04/15 11:38:08;;;;;;;11.23;7.85;;;12.90;99.90;;;;;;5120533;27;20043;-69
2022/04/15 11:40:36;;;;;;;10.32;8.15;;;13.10;99.90;;;;;;5108806;27;20519;-69
2022/04/15 11:43:08;;;;;;;12.40;7.90;;;13.00;99.90;;;;;;5157134;27;20069;-69
2022/04/15 11:45:41;;;;;;;15.40;7.65;;;12.90;99.90;;;;;;5141112;27;20114;-69
2022/04/15 11:48:17;;;;;;;9.43;7.55;;;13.10;99.90;;;;;;5122321;27;20435;-69
2022/04/15 11:50:43;;;;;;;12.65;8.20;;;12.90;99.90;;;;;;5109672;27;20057;-69
2022/04/15 11:53:08;;;;;;;13.48;8.38;;;12.80;99.90;;;;;;5132771;27;20050;-69
2022/04/15 11:55:55;;;;;;;9.75;8.00;;;12.90;99.90;;;;;;5147497;27;20047;-80
2022/04/15 11:58:30;;;;;;;12.80;8.13;;;12.70;99.90;;;;;;5147522;27;20287;-72
2022/04/15 12:00:58;;;;;;;11.13;8.88;;;12.70;99.90;;;;;;5139619;27;20051;-72
2022/04/15 12:03:25;;;;;;;11.50;8.15;;;12.60;99.90;;;;;;5120886;27;20649;-71
2022/04/15 12:05:53;;;;;;;13.32;8.07;;;12.70;99.90;;;;;;5122392;27;20053;-68
2022/04/15 12:08:20;;;;;;;12.73;8.00;;;12.90;99.90;;;;;;5149190;27;20046;-68
2022/04/15 12:10:47;;;;;;;11.65;8.10;;;12.80;99.90;;;;;;5139607;27;20182;-67
2022/04/15 12:13:13;;;;;;;16.52;8.35;;;12.80;99.90;;;;;;5128980;27;20135;-68
2022/04/15 12:15:40;;;;;;;11.98;7.63;;;12.70;99.90;;;;;;5139598;27;20042;-68
2022/04/15 12:18:06;;;;;;;11.65;8.82;;;12.80;99.90;;;;;;5123569;27;20051;-69
2022/04/15 12:20:34;;;;;;;9.82;7.65;;;12.70;99.90;;;;;;5120872;27;20570;-68
2022/04/15 12:23:00;;;;;;;9.93;7.50;;;12.70;99.90;;;;;;5133892;27;20065;-69
2022/04/15 12:26:05;;;;;;;10.82;8.23;;;12.60;99.90;;;;;;5133272;27;20062;-69
2022/04/15 12:29:47;;;;;;;10.32;7.13;;;12.50;99.90;;;;;;5129419;27;20071;-69
2022/04/15 12:30:59;;;;;;;11.88;7.43;;;12.70;99.90;;;;;;5121402;27;20130;-68
2022/04/15 12:33:25;;;;;;;11.77;8.35;;;12.60;99.90;;;;;;5124271;27;20241;-69
2022/04/15 12:36:02;;;;;;;11.38;8.30;;;12.50;99.90;;;;;;5134925;27;20060;-69
2022/04/15 12:38:59;;;;;;;8.15;6.93;;;12.50;99.90;;;;;;5106463;27;20043;-69
2022/04/15 12:41:35;;;;;;;10.05;7.45;;;12.40;99.90;;;;;;5139414;27;20038;-69
2022/04/15 12:44:15;;;;;;;10.05;7.65;;;12.50;99.90;;;;;;5129670;27;20304;-70
2022/04/15 12:46:45;;;;;;;10.60;7.53;;;12.50;99.90;;;;;;5141548;27;20118;-69
2022/04/15 12:49:27;;;;;;;12.25;8.48;;;12.30;99.90;;;;;;5114135;27;20043;-70
2022/04/15 12:51:58;;;;;;;11.90;8.50;;;12.40;99.90;;;;;;5140734;27;20050;-69